createdAt,value
2018-04-29T00:04:07.437Z,12.58
2018-04-29T00:09:10.095Z,12.75
2018-04-29T00:14:12.566Z,13.03
2018-04-29T00:19:15.205Z,13.07
2018-04-29T00:24:17.715Z,13.01
2018-04-29T00:29:20.231Z,12.77
2018-04-29T00:34:22.698Z,12.56
2018-04-29T00:39:25.185Z,12.23
2018-04-29T00:44:27.669Z,11.92
2018-04-29T00:49:30.138Z,11.72
2018-04-29T00:54:32.615Z,11.57
2018-04-29T00:59:35.067Z,11.44
2018-04-29T01:04:37.562Z,11.34
2018-04-29T01:09:40.032Z,11.25
2018-04-29T01:14:42.602Z,11.10
2018-04-29T01:19:45.119Z,11.10
2018-04-29T01:24:47.675Z,11.31
2018-04-29T01:29:50.203Z,11.46
2018-04-29T01:34:52.667Z,11.60
2018-04-29T01:39:55.201Z,11.76
2018-04-29T01:44:57.593Z,11.82
2018-04-29T01:50:00.063Z,11.78
2018-04-29T01:55:02.519Z,11.73
2018-04-29T02:00:04.980Z,11.69
2018-04-29T02:05:07.441Z,11.67
2018-04-29T02:10:10.589Z,11.58
2018-04-29T02:15:13.092Z,11.63
2018-04-29T02:20:15.621Z,11.72
2018-04-29T02:25:18.129Z,11.63
2018-04-29T02:30:20.641Z,11.60
2018-04-29T02:35:23.128Z,11.49
2018-04-29T02:40:25.653Z,11.36
2018-04-29T02:45:28.151Z,11.41
2018-04-29T02:50:30.611Z,11.54
2018-04-29T02:55:33.095Z,11.51
2018-04-29T03:00:35.733Z,11.38
2018-04-29T03:05:38.129Z,11.11
2018-04-29T03:10:40.631Z,10.84
2018-04-29T03:15:43.133Z,10.68
2018-04-29T03:20:45.634Z,10.57
2018-04-29T03:25:48.260Z,10.44
2018-04-29T03:30:50.752Z,10.28
2018-04-29T03:35:53.244Z,10.11
2018-04-29T03:40:55.722Z,9.99
2018-04-29T03:45:58.206Z,9.85
2018-04-29T03:51:00.743Z,9.73
2018-04-29T03:56:03.267Z,9.79
2018-04-29T04:01:18.884Z,9.99
2018-04-29T04:06:21.413Z,10.28
2018-04-29T04:11:23.899Z,10.43
2018-04-29T04:16:27.310Z,10.58
2018-04-29T04:21:29.768Z,10.71
2018-04-29T04:26:32.224Z,10.81
2018-04-29T04:31:34.677Z,10.92
2018-04-29T04:36:37.154Z,11.13
2018-04-29T04:41:39.621Z,11.00
2018-04-29T04:46:42.479Z,11.01
2018-04-29T04:51:45.059Z,11.31
2018-04-29T04:56:47.610Z,11.83
2018-04-29T05:01:50.142Z,12.63
2018-04-29T05:06:52.714Z,15.46
2018-04-29T05:11:55.190Z,19.06
2018-04-29T05:16:57.721Z,22.51
2018-04-29T05:22:00.193Z,24.45
2018-04-29T05:27:02.759Z,24.61
2018-04-29T05:32:05.300Z,26.08
2018-04-29T05:37:07.779Z,27.99
2018-04-29T05:42:10.274Z,28.54
2018-04-29T05:47:12.895Z,27.37
2018-04-29T05:52:15.517Z,24.75
2018-04-29T05:57:18.099Z,23.46
2018-04-29T06:02:20.569Z,22.95
2018-04-29T06:07:23.105Z,25.50
2018-04-29T06:12:25.577Z,24.85
2018-04-29T06:17:28.926Z,21.89
2018-04-29T06:22:31.412Z,20.40
2018-04-29T06:27:33.882Z,20.35
2018-04-29T06:32:36.376Z,21.22
2018-04-29T06:37:38.875Z,21.38
2018-04-29T06:42:42.757Z,20.49
2018-04-29T06:47:45.476Z,19.16
2018-04-29T06:52:48.023Z,18.23
2018-04-29T06:57:50.764Z,18.44
2018-04-29T07:02:53.265Z,18.56
2018-04-29T07:07:55.723Z,19.33
2018-04-29T07:12:58.200Z,20.77
2018-04-29T07:18:00.656Z,21.58
2018-04-29T07:23:03.139Z,21.16
2018-04-29T07:28:05.659Z,21.11
2018-04-29T07:33:08.151Z,22.34
2018-04-29T07:38:10.677Z,22.35
2018-04-29T07:43:13.279Z,22.72
2018-04-29T07:48:15.783Z,22.02
2018-04-29T07:53:18.321Z,21.44
2018-04-29T07:58:20.821Z,20.95
2018-04-29T08:03:23.308Z,21.63
2018-04-29T08:08:25.780Z,21.82
2018-04-29T08:13:28.356Z,20.74
2018-04-29T08:18:30.829Z,19.59
2018-04-29T08:23:33.874Z,19.97
2018-04-29T08:28:36.457Z,20.88
2018-04-29T08:33:39.010Z,21.20
2018-04-29T08:38:41.484Z,21.05
2018-04-29T08:43:43.997Z,20.94
2018-04-29T08:48:46.650Z,20.90
2018-04-29T08:53:49.162Z,21.25
2018-04-29T08:58:52.284Z,24.36
2018-04-29T09:03:54.895Z,24.88
2018-04-29T09:08:57.223Z,26.15
2018-04-29T09:13:59.691Z,26.02
2018-04-29T09:19:02.186Z,26.78
2018-04-29T09:24:04.679Z,27.29
2018-04-29T09:29:07.173Z,25.55
2018-04-29T09:34:09.622Z,27.51
2018-04-29T09:39:12.165Z,27.52
2018-04-29T09:44:14.656Z,27.45
2018-04-29T09:49:17.591Z,26.87
2018-04-29T09:54:20.178Z,25.46
2018-04-29T09:59:23.370Z,25.36
2018-04-29T10:04:26.094Z,25.44
2018-04-29T10:09:28.676Z,26.46
2018-04-29T10:14:31.137Z,26.10
2018-04-29T10:19:33.593Z,26.64
2018-04-29T10:24:36.053Z,27.92
2018-04-29T10:29:38.550Z,27.94
2018-04-29T10:34:41.040Z,27.46
2018-04-29T10:39:43.548Z,27.70
2018-04-29T10:44:46.037Z,25.99
2018-04-29T10:49:48.577Z,25.77
2018-04-29T10:54:51.071Z,26.46
2018-04-29T10:59:53.601Z,26.68
2018-04-29T11:04:56.069Z,26.71
2018-04-29T11:09:58.552Z,26.92
2018-04-29T11:15:01.257Z,26.17
2018-04-29T11:20:03.749Z,26.73
2018-04-29T11:25:06.202Z,26.74
2018-04-29T11:30:09.072Z,27.36
2018-04-29T11:35:11.565Z,27.62
2018-04-29T11:40:14.104Z,28.14
2018-04-29T11:45:16.590Z,28.39
2018-04-29T11:50:19.076Z,27.53
2018-04-29T11:55:21.649Z,27.21
2018-04-29T12:00:24.496Z,27.02
2018-04-29T12:05:26.961Z,26.83
2018-04-29T12:10:29.429Z,25.88
2018-04-29T12:15:31.904Z,26.78
2018-04-29T12:20:35.326Z,27.12
2018-04-29T12:25:37.808Z,26.99
2018-04-29T12:30:40.290Z,26.54
2018-04-29T12:35:43.396Z,27.45
2018-04-29T12:40:45.915Z,27.68
2018-04-29T12:45:48.480Z,27.70
2018-04-29T12:50:50.987Z,27.78
2018-04-29T12:55:53.562Z,27.56
2018-04-29T13:00:56.056Z,27.65
2018-04-29T13:05:58.546Z,27.61
2018-04-29T13:11:01.013Z,26.50
2018-04-29T13:16:03.475Z,27.57
2018-04-29T13:21:05.963Z,27.55
2018-04-29T13:26:08.542Z,27.98
2018-04-29T13:31:11.106Z,28.07
2018-04-29T13:36:13.605Z,27.63
2018-04-29T13:41:16.100Z,27.99
2018-04-29T13:46:18.611Z,27.96
2018-04-29T13:51:21.106Z,28.14
2018-04-29T13:56:23.775Z,27.61
2018-04-29T14:01:26.243Z,27.25
2018-04-29T14:06:28.742Z,26.62
2018-04-29T14:11:31.218Z,27.27
2018-04-29T14:16:33.845Z,26.79
2018-04-29T14:21:36.288Z,27.19
2018-04-29T14:26:39.006Z,27.64
2018-04-29T14:31:42.281Z,26.96
2018-04-29T14:36:44.808Z,26.94
2018-04-29T14:41:47.307Z,27.08
2018-04-29T14:46:49.848Z,28.15
2018-04-29T14:51:52.490Z,27.58
2018-04-29T14:56:55.005Z,26.87
2018-04-29T15:01:57.523Z,26.96
2018-04-29T15:07:00.101Z,26.82
2018-04-29T15:12:02.559Z,27.12
2018-04-29T15:17:05.068Z,27.33
2018-04-29T15:22:07.549Z,27.31
2018-04-29T15:27:10.115Z,27.05
2018-04-29T15:32:12.678Z,27.54
2018-04-29T15:37:15.188Z,27.30
2018-04-29T15:42:17.770Z,27.43
2018-04-29T15:47:20.354Z,27.54
2018-04-29T15:52:22.767Z,27.92
2018-04-29T15:57:25.330Z,27.92
2018-04-29T16:02:27.798Z,27.59
2018-04-29T16:07:30.354Z,27.80
2018-04-29T16:12:32.841Z,27.45
2018-04-29T16:17:35.389Z,27.31
2018-04-29T16:22:37.858Z,27.51
2018-04-29T16:27:40.341Z,27.12
2018-04-29T16:32:42.894Z,26.76
2018-04-29T16:37:45.376Z,26.11
2018-04-29T16:42:47.946Z,25.96
2018-04-29T16:47:50.441Z,25.22
2018-04-29T16:52:52.978Z,25.37
2018-04-29T16:57:55.425Z,25.43
2018-04-29T17:02:57.925Z,25.01
2018-04-29T17:08:00.404Z,24.88
2018-04-29T17:13:02.894Z,24.64
2018-04-29T17:18:05.537Z,24.50
2018-04-29T17:23:08.004Z,24.31
2018-04-29T17:28:11.993Z,24.15
2018-04-29T17:33:15.531Z,23.54
2018-04-29T17:38:19.202Z,23.25
2018-04-29T17:43:22.445Z,22.83
2018-04-29T17:48:25.614Z,22.48
2018-04-29T17:53:28.210Z,22.29
2018-04-29T17:58:31.397Z,22.06
2018-04-29T18:03:33.953Z,21.90
2018-04-29T18:08:36.792Z,21.58
2018-04-29T18:13:39.282Z,21.42
2018-04-29T18:18:41.866Z,21.26
2018-04-29T18:23:44.497Z,21.11
2018-04-29T18:28:47.845Z,20.86
2018-04-29T18:33:50.707Z,20.77
2018-04-29T18:38:53.253Z,20.68
2018-04-29T18:43:55.730Z,20.51
2018-04-29T18:48:58.221Z,20.40
2018-04-29T18:54:00.694Z,20.36
2018-04-29T18:59:03.351Z,20.27
2018-04-29T19:04:05.821Z,20.15
2018-04-29T19:09:08.318Z,19.93
2018-04-29T19:14:11.635Z,20.04
2018-04-29T19:19:14.869Z,20.07
2018-04-29T19:24:17.728Z,20.01
2018-04-29T19:29:20.504Z,20.01
2018-04-29T19:34:23.020Z,19.83
2018-04-29T19:39:25.480Z,19.72
2018-04-29T19:44:27.966Z,19.86
2018-04-29T19:49:30.428Z,19.67
2018-04-29T19:54:33.003Z,19.50
2018-04-29T19:59:36.774Z,19.25
2018-04-29T20:04:40.173Z,19.20
2018-04-29T20:09:42.752Z,19.33
2018-04-29T20:14:45.454Z,19.33
2018-04-29T20:19:49.298Z,19.26
2018-04-29T20:24:52.735Z,19.17
2018-04-29T20:29:58.957Z,19.34
2018-04-29T20:35:03.805Z,19.21
2018-04-29T20:40:09.091Z,19.06
2018-04-29T20:45:16.357Z,18.92
2018-04-29T20:50:19.157Z,18.94
2018-04-29T20:55:23.984Z,18.92
2018-04-29T21:00:27.357Z,18.80
2018-04-29T21:05:29.936Z,18.71
2018-04-29T21:10:32.441Z,18.66
2018-04-29T21:15:34.919Z,18.57
2018-04-29T21:20:37.843Z,18.44
2018-04-29T21:25:40.281Z,18.42
2018-04-29T21:30:42.824Z,18.31
2018-04-29T21:35:46.112Z,18.27
2018-04-29T21:40:48.678Z,18.26
2018-04-29T21:45:51.283Z,18.13
2018-04-29T21:50:53.784Z,18.08
2018-04-29T21:55:56.248Z,18.03
2018-04-29T22:00:58.734Z,18.00
2018-04-29T22:06:01.200Z,17.80
2018-04-29T22:11:03.672Z,17.83
2018-04-29T22:16:06.146Z,17.78
2018-04-29T22:21:08.609Z,17.76
2018-04-29T22:26:12.206Z,17.63
2018-04-29T22:31:14.880Z,17.57
2018-04-29T22:36:17.386Z,17.55
2018-04-29T22:41:19.937Z,17.46
2018-04-29T22:46:22.733Z,17.47
2018-04-29T22:51:25.193Z,17.37
2018-04-29T22:56:27.666Z,17.48
2018-04-29T23:01:30.123Z,17.31
2018-04-29T23:06:32.574Z,17.26
2018-04-29T23:11:35.126Z,17.23
2018-04-29T23:16:37.779Z,17.22
2018-04-29T23:21:40.238Z,17.12
2018-04-29T23:26:42.727Z,17.00
2018-04-29T23:31:45.242Z,17.03
2018-04-29T23:36:47.782Z,16.95
2018-04-29T23:41:50.311Z,16.77
2018-04-29T23:46:52.776Z,16.78
2018-04-29T23:51:55.341Z,16.67
2018-04-29T23:56:57.738Z,16.58
